createdAt,value
2023-06-17T00:01:54.697Z,15.53
2023-06-17T00:04:22.602Z,15.51
2023-06-17T00:06:50.992Z,15.49
2023-06-17T00:09:19.051Z,15.46
2023-06-17T00:11:48.821Z,15.43
2023-06-17T00:14:17.701Z,15.42
2023-06-17T00:16:45.568Z,15.41
2023-06-17T00:19:17.738Z,15.40
2023-06-17T00:21:50.700Z,15.39
2023-06-17T00:24:19.299Z,15.36
2023-06-17T00:26:47.973Z,15.35
2023-06-17T00:29:16.838Z,15.32
2023-06-17T00:31:44.868Z,15.30
2023-06-17T00:34:12.923Z,15.28
2023-06-17T00:36:40.829Z,15.25
2023-06-17T00:39:08.893Z,15.25
2023-06-17T00:41:36.856Z,15.20
2023-06-17T00:44:04.940Z,15.15
2023-06-17T00:46:42.351Z,15.12
2023-06-17T00:49:10.886Z,15.12
2023-06-17T00:51:40.738Z,15.12
2023-06-17T00:54:10.415Z,15.12
2023-06-17T00:56:39.191Z,15.13
2023-06-17T00:59:08.011Z,15.15
2023-06-17T01:01:38.712Z,15.13
2023-06-17T01:04:08.004Z,15.13
2023-06-17T01:06:51.746Z,15.11
2023-06-17T01:09:24.232Z,15.09
2023-06-17T01:11:57.106Z,15.08
2023-06-17T01:14:27.407Z,15.12
2023-06-17T01:16:55.849Z,15.08
2023-06-17T01:19:26.171Z,14.99
2023-06-17T01:21:58.143Z,14.95
2023-06-17T01:24:31.331Z,14.86
2023-06-17T01:27:01.144Z,14.79
2023-06-17T01:29:33.947Z,14.77
2023-06-17T01:32:02.934Z,14.77
2023-06-17T01:34:35.484Z,14.76
2023-06-17T01:37:08.919Z,14.79
2023-06-17T01:39:39.636Z,14.82
2023-06-17T01:42:16.601Z,14.79
2023-06-17T01:44:44.890Z,14.78
2023-06-17T01:47:15.035Z,14.76
2023-06-17T01:49:44.060Z,14.74
2023-06-17T01:52:12.894Z,14.70
2023-06-17T01:54:40.983Z,14.67
2023-06-17T01:57:09.408Z,14.67
2023-06-17T01:59:37.329Z,14.65
2023-06-17T02:02:05.457Z,14.64
2023-06-17T02:04:33.359Z,14.62
2023-06-17T02:07:01.538Z,14.58
2023-06-17T02:09:29.804Z,14.58
2023-06-17T02:11:57.880Z,14.58
2023-06-17T02:14:26.167Z,14.60
2023-06-17T02:16:54.388Z,14.63
2023-06-17T02:19:23.624Z,14.66
2023-06-17T02:21:52.172Z,14.68
2023-06-17T02:24:22.425Z,14.66
2023-06-17T02:26:51.444Z,14.65
2023-06-17T02:29:19.493Z,14.63
2023-06-17T02:31:47.704Z,14.63
2023-06-17T02:34:16.161Z,14.63
2023-06-17T02:36:45.942Z,14.61
2023-06-17T02:39:13.894Z,14.62
2023-06-17T02:41:43.564Z,14.60
2023-06-17T02:44:11.630Z,14.61
2023-06-17T02:46:39.593Z,14.60
2023-06-17T02:49:07.542Z,14.61
2023-06-17T02:51:35.529Z,14.64
2023-06-17T02:54:03.993Z,14.66
2023-06-17T02:56:32.046Z,14.66
2023-06-17T02:59:00.667Z,14.68
2023-06-17T03:01:30.050Z,14.70
2023-06-17T03:04:02.753Z,14.68
2023-06-17T03:06:35.255Z,14.64
2023-06-17T03:09:07.091Z,14.62
2023-06-17T03:11:36.561Z,14.63
2023-06-17T03:14:04.966Z,14.66
2023-06-17T03:16:35.037Z,14.68
2023-06-17T03:19:06.747Z,14.72
2023-06-17T03:21:42.097Z,14.74
2023-06-17T03:24:10.955Z,14.77
2023-06-17T03:26:39.897Z,14.79
2023-06-17T03:29:08.005Z,14.82
2023-06-17T03:31:36.483Z,14.82
2023-06-17T03:34:04.574Z,14.83
2023-06-17T03:36:32.672Z,14.85
2023-06-17T03:39:00.703Z,14.87
2023-06-17T03:41:33.420Z,14.91
2023-06-17T03:44:01.935Z,14.95
2023-06-17T03:46:30.140Z,15.00
2023-06-17T03:48:58.680Z,15.06
2023-06-17T03:51:26.792Z,15.10
2023-06-17T03:53:55.972Z,15.15
2023-06-17T03:56:24.893Z,15.20
2023-06-17T03:58:55.302Z,15.22
2023-06-17T05:04:16.358Z,16.78
2023-06-17T09:14:02.154Z,26.93
2023-06-17T10:29:42.900Z,27.88
2023-06-17T13:43:00.485Z,27.67
2023-06-17T13:45:29.157Z,27.50
2023-06-17T13:52:55.013Z,27.54
2023-06-17T14:14:27.484Z,26.87
2023-06-17T14:50:41.692Z,25.66
2023-06-17T15:22:01.592Z,26.28
2023-06-17T15:24:29.849Z,26.28
2023-06-17T16:09:00.861Z,25.76
2023-06-17T16:26:08.950Z,25.27
2023-06-17T16:57:23.320Z,23.93
2023-06-17T17:39:13.380Z,21.64
2023-06-17T17:41:41.446Z,21.85
2023-06-17T17:44:09.892Z,22.03
2023-06-17T18:30:26.235Z,20.71
2023-06-17T18:42:24.499Z,20.52
2023-06-17T18:49:50.737Z,20.48
2023-06-17T19:04:37.811Z,19.92
2023-06-17T19:12:00.724Z,19.21
2023-06-17T19:14:28.900Z,19.00
2023-06-17T19:16:57.103Z,18.84
2023-06-17T19:19:25.443Z,18.72
2023-06-17T19:34:58.934Z,18.06
2023-06-17T19:37:29.080Z,17.96
2023-06-17T19:39:57.463Z,17.84
2023-06-17T19:47:21.450Z,17.62
2023-06-17T19:49:49.804Z,17.57
2023-06-17T19:57:02.066Z,17.34
2023-06-17T19:59:30.464Z,17.27
2023-06-17T20:01:58.770Z,17.21
2023-06-17T20:13:54.396Z,16.84
2023-06-17T20:26:03.056Z,16.47
2023-06-17T20:40:16.910Z,16.20
2023-06-17T20:43:55.049Z,16.13
2023-06-17T20:46:23.348Z,16.08
2023-06-17T20:48:51.529Z,16.00
2023-06-17T20:56:02.800Z,15.86
2023-06-17T20:58:30.935Z,15.79
2023-06-17T21:00:59.096Z,15.73
2023-06-17T21:13:09.600Z,15.56
2023-06-17T21:15:39.100Z,15.51
2023-06-17T21:18:07.344Z,15.45
2023-06-17T21:39:43.047Z,15.02
2023-06-17T21:42:11.775Z,14.96
2023-06-17T21:44:40.477Z,14.95
2023-06-17T21:56:44.037Z,14.86
2023-06-17T21:59:13.269Z,14.81
2023-06-17T22:11:21.827Z,14.66
2023-06-17T22:23:19.011Z,14.48
2023-06-17T22:25:47.559Z,14.44
2023-06-17T22:42:39.902Z,14.52
2023-06-17T22:59:30.928Z,14.33
2023-06-17T23:06:49.933Z,14.36
2023-06-17T23:14:02.923Z,14.26
2023-06-17T23:21:14.904Z,14.49
2023-06-17T23:23:43.557Z,14.57
2023-06-17T23:35:47.221Z,14.90
